UADD

Details ICAO UADD (DMB)
Name TARAZ
Region Kazakhstan and Kyrgyzstan
Timezone Asia/Almaty (UTC+6.0)
Plans Departing 6
Arriving 16
Stats Elevation 2,184 ft / 666 m (AMSL)
Location 42.853533° 71.303693°
Runways 1
Magnetic Variation 5.844° E
Sunrise 2018-06-24 23:38:27 UTC / 2018-06-25 05:38:27 Local
Sunset 2018-06-25 14:58:39 UTC / 2018-06-25 20:58:39 Local
Advertisement - Login to hide

Runways

ID Width Length Bearing (true) Bearing (mag) Surface Threshold Offset Overrun Length
13 148 ft / 45 m 9,523 ft / 2,903 m 137.09° 131.25° Asphalt 0 ft / 0 m 0 ft / 0 m
31 148 ft / 45 m 9,523 ft / 2,903 m 317.11° 311.27° Asphalt 722 ft / 220 m 0 ft / 0 m

Map

Weather


0- 5 10 15 20 25 30 35+ Temperature / ° C

Clouds and Precipitation
Forecast for 2018-06-25 12:00 UTC. Updated 37 minutes ago

Ground ~20,000 ft ~40,000 ft Winds

METAR

UADD 251000Z 32005MPS 9999 VCTS BKN050CB OVC100 21/13 Q1012 R31/0///65 NOSIG RMK QFE701/0935

TAF

Not found

Frequencies

Tower 120.80 MHz TWR
Approach 122.10 MHz APP
Tower 122.10 MHz TWR
Approach 120.80 MHz APP
Warning: Do not use this data for real-world aviation or navigation. No guarantee of current accuracy is given.